Time;durP1;ratioP1;P1;durP2;ratioP2;P2;SDS_P1;SDS_P2;PMS_P1;PMS_P2;Temp;Humidity;BMP_temperature;BMP_pressure;BME280_temperature;BME280_humidity;BME280_pressure;Samples;Min_cycle;Max_cycle;Signal;HPM_P1;HPM_P2
2022/07/30 00:01:35;;;;;;;4.50;2.93;;;15.20;99.90;;;;;;5099919;28;20203;-81
2022/07/30 00:04:01;;;;;;;6.67;2.93;;;;;;;;;;5098376;28;20169;-82
2022/07/30 00:06:27;;;;;;;2.73;2.50;;;;;;;;;;5098697;28;20192;-81
2022/07/30 00:08:53;;;;;;;2.87;2.57;;;15.30;99.90;;;;;;5098803;28;20176;-82
2022/07/30 00:11:20;;;;;;;2.63;2.40;;;;;;;;;;5099786;28;20206;-81
2022/07/30 00:13:46;;;;;;;2.60;2.40;;;15.00;99.90;;;;;;5099749;28;20571;-81
2022/07/30 00:16:12;;;;;;;3.23;2.70;;;;;;;;;;5097876;28;20235;-82
2022/07/30 00:18:38;;;;;;;2.87;2.40;;;15.00;99.90;;;;;;5099267;28;20199;-82
2022/07/30 00:21:04;;;;;;;3.00;2.73;;;;;;;;;;5099394;28;20200;-81
2022/07/30 00:23:31;;;;;;;3.43;2.30;;;15.10;99.90;;;;;;5098130;28;20168;-82
2022/07/30 00:25:57;;;;;;;3.50;2.40;;;15.20;99.90;;;;;;5099766;28;20184;-82
2022/07/30 00:28:22;;;;;;;2.50;2.30;;;15.30;99.90;;;;;;5099743;28;20219;-82
2022/07/30 00:30:48;;;;;;;3.13;2.40;;;;;;;;;;5099943;28;20172;-82
2022/07/30 00:33:14;;;;;;;2.37;2.17;;;15.20;99.90;;;;;;5103304;28;20218;-81
2022/07/30 00:35:40;;;;;;;3.40;2.60;;;15.20;99.90;;;;;;5097272;28;20224;-81
2022/07/30 00:38:06;;;;;;;3.13;2.43;;;;;;;;;;5096814;28;20181;-81
2022/07/30 00:40:32;;;;;;;3.27;2.80;;;15.20;99.90;;;;;;5096598;28;20176;-81
2022/07/30 00:42:57;;;;;;;3.90;2.20;;;15.30;99.90;;;;;;5096254;28;20536;-81
2022/07/30 00:45:24;;;;;;;4.67;2.20;;;;;;;;;;5097156;28;20183;-82
2022/07/30 00:47:49;;;;;;;3.10;2.40;;;15.30;99.90;;;;;;5096743;28;20212;-81
2022/07/30 00:50:15;;;;;;;4.83;2.53;;;;;;;;;;5098417;28;20176;-81
2022/07/30 00:52:42;;;;;;;2.97;2.30;;;15.30;99.90;;;;;;5096816;28;20330;-81
2022/07/30 00:55:10;;;;;;;4.37;2.47;;;15.40;99.90;;;;;;5098706;28;20623;-82
2022/07/30 00:57:36;;;;;;;3.27;2.67;;;15.50;99.90;;;;;;5098143;28;20200;-81
2022/07/30 01:00:04;;;;;;;2.83;2.53;;;15.50;99.90;;;;;;5099231;28;20186;-81
2022/07/30 01:02:30;;;;;;;2.90;2.60;;;15.50;99.90;;;;;;5097253;28;20619;-81
2022/07/30 01:04:56;;;;;;;2.53;2.33;;;;;;;;;;5098111;28;20181;-81
2022/07/30 01:07:21;;;;;;;2.47;2.27;;;15.60;99.90;;;;;;5097864;28;20195;-81
2022/07/30 01:09:47;;;;;;;3.37;2.30;;;;;;;;;;5097969;28;20176;-81
2022/07/30 01:12:22;;;;;;;2.57;2.37;;;15.70;99.90;;;;;;5097619;28;20188;-81
2022/07/30 01:14:48;;;;;;;2.77;2.17;;;15.70;99.90;;;;;;5098304;28;20188;-81
2022/07/30 01:17:14;;;;;;;2.57;2.37;;;15.70;99.90;;;;;;5096264;28;20197;-82
2022/07/30 01:19:48;;;;;;;5.17;2.23;;;15.70;99.90;;;;;;5096414;28;20267;-81
2022/07/30 01:22:16;;;;;;;3.03;2.67;;;15.70;99.90;;;;;;5096394;28;20196;-81
2022/07/30 01:25:20;;;;;;;3.03;2.37;;;15.70;99.90;;;;;;5097810;28;20175;-81
2022/07/30 01:27:57;;;;;;;3.27;2.50;;;15.80;99.90;;;;;;5081015;28;20184;-81
2022/07/30 01:30:27;;;;;;;2.33;2.13;;;15.70;99.90;;;;;;5097874;28;20156;-81
2022/07/30 01:32:55;;;;;;;3.07;2.70;;;15.70;99.90;;;;;;5097634;28;20243;-81
2022/07/30 01:35:24;;;;;;;3.03;2.37;;;15.70;99.90;;;;;;5097589;28;20176;-81
2022/07/30 01:37:52;;;;;;;3.97;2.70;;;15.70;99.90;;;;;;5096996;28;20185;-81
2022/07/30 01:40:19;;;;;;;3.73;2.70;;;15.70;99.90;;;;;;5096167;28;20195;-81
2022/07/30 01:42:48;;;;;;;3.63;2.77;;;15.70;99.90;;;;;;5095982;28;20255;-81
2022/07/30 01:45:16;;;;;;;6.57;2.73;;;15.70;99.90;;;;;;5095666;28;20200;-81
2022/07/30 01:47:44;;;;;;;2.90;2.60;;;15.70;99.90;;;;;;5095228;28;20175;-81
2022/07/30 01:50:13;;;;;;;4.23;2.60;;;15.70;99.90;;;;;;5096886;28;20180;-81
2022/07/30 01:52:44;;;;;;;6.57;2.80;;;15.70;99.90;;;;;;5096483;28;20168;-82
2022/07/30 01:55:12;;;;;;;2.73;2.50;;;;;;;;;;5097016;28;20164;-82
2022/07/30 01:57:39;;;;;;;3.60;2.80;;;15.80;99.90;;;;;;5095058;28;20560;-81
2022/07/30 02:00:07;;;;;;;2.97;2.67;;;15.70;99.90;;;;;;5096789;28;20207;-81
2022/07/30 02:02:37;;;;;;;3.23;2.77;;;15.80;99.90;;;;;;5095289;28;20204;-81
2022/07/30 02:05:04;;;;;;;3.70;2.60;;;15.80;99.90;;;;;;5095441;28;20183;-81
2022/07/30 02:07:40;;;;;;;3.93;2.37;;;15.70;99.90;;;;;;5095554;28;20196;-82
2022/07/30 02:10:41;;;;;;;3.30;2.80;;;15.70;99.90;;;;;;5095903;28;20161;-82
2022/07/30 02:13:08;;;;;;;2.77;2.47;;;15.80;99.90;;;;;;5096344;28;20214;-82
2022/07/30 02:15:42;;;;;;;5.43;2.33;;;15.80;99.90;;;;;;5096131;28;20199;-81
2022/07/30 02:18:31;;;;;;;3.00;2.70;;;15.80;99.90;;;;;;5096283;28;20182;-82
2022/07/30 02:21:03;;;;;;;2.90;2.60;;;15.70;99.90;;;;;;5094990;28;20250;-81
2022/07/30 02:23:34;;;;;;;2.87;2.53;;;15.70;99.90;;;;;;5096944;28;20183;-82
2022/07/30 02:26:00;;;;;;;2.57;2.27;;;15.80;99.90;;;;;;5096620;28;20290;-82
2022/07/30 02:28:27;;;;;;;2.70;2.50;;;15.80;99.90;;;;;;5095069;28;20238;-82
2022/07/30 02:31:00;;;;;;;5.37;2.83;;;15.80;99.90;;;;;;5095626;28;20236;-82
2022/07/30 02:33:29;;;;;;;3.27;2.57;;;15.80;99.90;;;;;;5099171;28;20246;-81
2022/07/30 02:35:57;;;;;;;3.73;2.70;;;15.80;99.90;;;;;;5094663;28;20199;-82
2022/07/30 02:38:26;;;;;;;3.30;2.90;;;15.80;99.90;;;;;;5096227;28;20241;-82
2022/07/30 02:40:54;;;;;;;2.83;2.57;;;15.80;99.90;;;;;;5095199;28;20677;-82
2022/07/30 02:43:24;;;;;;;3.50;2.70;;;15.80;99.90;;;;;;5096472;28;20177;-82
2022/07/30 02:45:49;;;;;;;4.23;2.77;;;15.80;99.90;;;;;;5096325;28;20260;-82
2022/07/30 02:48:16;;;;;;;2.63;2.37;;;15.80;99.90;;;;;;5095201;28;20208;-82
2022/07/30 02:50:43;;;;;;;3.00;2.70;;;15.80;99.90;;;;;;5096178;28;20638;-82
2022/07/30 02:53:12;;;;;;;3.70;2.67;;;15.80;99.90;;;;;;5096091;28;20180;-81
2022/07/30 02:55:39;;;;;;;3.27;2.70;;;15.80;99.90;;;;;;5096422;28;20661;-82
2022/07/30 02:58:06;;;;;;;3.30;2.70;;;15.80;99.90;;;;;;5094808;28;20176;-81
2022/07/30 03:00:33;;;;;;;3.53;2.43;;;15.80;99.90;;;;;;5094431;28;20203;-82
2022/07/30 03:03:01;;;;;;;3.00;2.70;;;15.80;99.90;;;;;;5096080;28;20172;-81
2022/07/30 03:05:27;;;;;;;4.80;2.90;;;15.80;99.90;;;;;;5097904;28;20532;-82
2022/07/30 03:07:57;;;;;;;3.03;2.70;;;15.80;99.90;;;;;;5099854;28;20175;-82
2022/07/30 03:10:24;;;;;;;4.07;2.97;;;15.80;99.90;;;;;;5100058;28;20258;-82
2022/07/30 03:12:51;;;;;;;2.73;2.53;;;15.80;99.90;;;;;;5100212;28;20535;-82
2022/07/30 03:15:17;;;;;;;4.10;2.97;;;15.80;99.90;;;;;;5098379;28;20537;-81
2022/07/30 03:17:45;;;;;;;3.40;2.70;;;15.80;99.90;;;;;;5098431;28;20188;-82
2022/07/30 03:20:14;;;;;;;3.30;2.90;;;15.80;99.90;;;;;;5100566;28;20176;-82
2022/07/30 03:22:42;;;;;;;3.27;2.80;;;15.80;99.90;;;;;;5100045;28;20261;-82
2022/07/30 03:25:12;;;;;;;4.30;3.03;;;15.80;99.90;;;;;;5098253;28;20200;-82
2022/07/30 03:27:39;;;;;;;6.40;2.87;;;15.80;99.90;;;;;;5098793;28;20200;-82
2022/07/30 03:30:06;;;;;;;3.00;2.70;;;15.80;99.90;;;;;;5100373;28;20207;-82
2022/07/30 03:32:33;;;;;;;4.93;2.80;;;15.60;99.90;;;;;;5099538;28;20180;-82
2022/07/30 03:35:00;;;;;;;2.60;2.40;;;15.60;99.90;;;;;;5098632;28;20676;-82
2022/07/30 03:37:26;;;;;;;8.97;3.07;;;15.50;99.90;;;;;;5099190;28;20202;-82
2022/07/30 03:39:53;;;;;;;5.23;3.40;;;15.40;99.90;;;;;;5098215;28;20196;-82
2022/07/30 03:42:21;;;;;;;3.50;3.20;;;15.20;99.90;;;;;;5099452;28;20291;-82
2022/07/30 03:44:47;;;;;;;8.60;2.97;;;15.20;99.90;;;;;;5097845;28;20620;-82
2022/07/30 03:47:14;;;;;;;4.70;2.80;;;15.10;99.90;;;;;;5097467;28;20564;-82
2022/07/30 03:49:40;;;;;;;3.77;3.00;;;15.10;99.90;;;;;;5099647;28;20169;-82
2022/07/30 03:52:07;;;;;;;2.83;2.50;;;14.90;99.90;;;;;;5098337;28;20236;-82
2022/07/30 03:54:33;;;;;;;3.20;2.90;;;14.90;99.90;;;;;;5099798;28;20180;-82
2022/07/30 03:57:03;;;;;;;4.50;3.10;;;14.90;99.90;;;;;;5097979;28;20204;-82
2022/07/30 03:59:30;;;;;;;3.93;2.97;;;14.90;99.90;;;;;;5099224;28;20195;-82
2022/07/30 04:02:01;;;;;;;2.87;2.67;;;14.90;99.90;;;;;;5098452;28;20212;-82
2022/07/30 04:04:27;;;;;;;7.50;3.20;;;14.80;99.90;;;;;;5099201;28;20183;-82
2022/07/30 04:06:53;;;;;;;3.10;2.80;;;14.80;99.90;;;;;;5098418;28;20204;-81
2022/07/30 04:09:19;;;;;;;2.90;2.50;;;;;;;;;;5099029;28;20605;-82
2022/07/30 04:11:45;;;;;;;3.00;2.73;;;14.80;99.90;;;;;;5097888;28;20188;-81
2022/07/30 04:14:11;;;;;;;6.47;3.00;;;;;;;;;;5099071;28;20525;-83
2022/07/30 04:16:54;;;;;;;3.33;2.87;;;14.90;99.90;;;;;;5098175;28;20291;-82
2022/07/30 04:19:30;;;;;;;5.03;3.00;;;14.90;99.90;;;;;;5099537;28;20176;-82
2022/07/30 04:21:57;;;;;;;2.73;2.53;;;15.00;99.90;;;;;;5097711;28;20574;-82
2022/07/30 04:24:24;;;;;;;3.90;2.90;;;15.10;99.90;;;;;;5097871;28;20183;-82
2022/07/30 04:26:51;;;;;;;3.50;2.83;;;15.20;99.90;;;;;;5098488;28;20550;-81
2022/07/30 04:29:18;;;;;;;2.90;2.70;;;15.30;99.90;;;;;;5097170;28;20187;-82
2022/07/30 04:31:44;;;;;;;3.87;3.23;;;15.40;99.90;;;;;;5097498;28;20278;-82
2022/07/30 04:34:14;;;;;;;2.77;2.37;;;15.50;99.90;;;;;;5098448;28;20175;-82
2022/07/30 04:36:40;;;;;;;4.00;2.90;;;15.60;99.90;;;;;;5098724;28;20551;-81
2022/07/30 04:39:06;;;;;;;2.73;2.53;;;15.70;99.90;;;;;;5097972;28;20200;-82
2022/07/30 04:41:32;;;;;;;2.93;2.60;;;15.70;99.90;;;;;;5097057;28;20207;-82
2022/07/30 04:43:58;;;;;;;2.67;2.47;;;;;;;;;;5097072;28;20172;-82
2022/07/30 04:46:23;;;;;;;2.83;2.40;;;15.90;99.90;;;;;;5096599;28;20193;-82
2022/07/30 04:48:49;;;;;;;4.30;2.63;;;;;;;;;;5096913;28;20666;-82
2022/07/30 04:51:30;;;;;;;4.73;2.70;;;16.00;99.90;;;;;;5097023;28;20542;-82
2022/07/30 04:53:58;;;;;;;2.93;2.27;;;16.00;99.90;;;;;;5097126;28;20179;-82
2022/07/30 04:56:24;;;;;;;5.93;2.83;;;16.10;99.90;;;;;;5096929;28;20204;-81
2022/07/30 04:58:51;;;;;;;3.43;2.60;;;16.20;99.90;;;;;;5098211;28;20219;-82
2022/07/30 05:01:33;;;;;;;3.87;2.37;;;16.20;99.90;;;;;;5098251;28;20201;-82
2022/07/30 05:04:00;;;;;;;2.60;2.40;;;16.20;99.90;;;;;;5099441;28;20158;-81
2022/07/30 05:06:27;;;;;;;4.60;2.23;;;16.20;99.90;;;;;;5103320;28;20198;-82
2022/07/30 05:08:53;;;;;;;2.73;2.53;;;16.20;99.90;;;;;;5096823;28;20205;-82
2022/07/30 05:11:19;;;;;;;2.80;2.50;;;16.20;99.90;;;;;;5096922;28;20279;-82
2022/07/30 05:13:49;;;;;;;5.30;2.87;;;16.20;99.90;;;;;;5098485;28;20204;-82
2022/07/30 05:16:15;;;;;;;6.03;2.37;;;16.20;99.90;;;;;;5097542;28;20206;-82
2022/07/30 05:18:41;;;;;;;4.63;2.17;;;;;;;;;;5098305;28;20177;-82
2022/07/30 05:21:07;;;;;;;3.33;2.37;;;16.20;99.90;;;;;;5095965;28;20207;-82
2022/07/30 05:23:34;;;;;;;2.60;2.30;;;16.20;99.90;;;;;;5096112;28;20225;-82
2022/07/30 05:26:00;;;;;;;5.43;2.53;;;16.20;99.90;;;;;;5096044;28;20727;-81
2022/07/30 05:28:26;;;;;;;2.90;2.60;;;;;;;;;;5096737;28;20259;-81
2022/07/30 05:30:54;;;;;;;4.40;2.80;;;16.20;99.90;;;;;;5095951;28;20186;-81
2022/07/30 05:33:21;;;;;;;2.80;2.50;;;16.20;99.90;;;;;;5097626;28;20172;-81
2022/07/30 05:35:48;;;;;;;3.10;2.70;;;16.10;99.90;;;;;;5097227;28;20195;-81
2022/07/30 05:38:15;;;;;;;2.87;2.67;;;16.10;99.90;;;;;;5097235;28;20172;-82
2022/07/30 05:40:40;;;;;;;2.73;2.30;;;16.10;99.90;;;;;;5097243;28;20172;-82
2022/07/30 05:43:06;;;;;;;2.60;2.33;;;16.10;99.90;;;;;;5097591;28;20205;-82
2022/07/30 05:45:32;;;;;;;2.70;2.50;;;;;;;;;;5097490;28;20168;-81
2022/07/30 05:47:58;;;;;;;2.90;2.60;;;16.10;99.90;;;;;;5096047;28;20668;-82
2022/07/30 05:50:24;;;;;;;3.70;2.70;;;;;;;;;;5096036;28;20176;-82
2022/07/30 05:52:50;;;;;;;4.10;2.50;;;16.20;99.90;;;;;;5098005;28;20179;-82
2022/07/30 05:55:15;;;;;;;4.73;3.03;;;16.20;99.90;;;;;;5095597;28;20257;-81
2022/07/30 05:57:41;;;;;;;4.87;2.40;;;16.20;99.90;;;;;;5095623;28;20245;-82
2022/07/30 06:00:11;;;;;;;3.20;2.60;;;16.20;99.90;;;;;;5097126;28;20679;-82
2022/07/30 06:02:40;;;;;;;4.53;2.37;;;16.30;99.90;;;;;;5095357;28;20298;-81
2022/07/30 06:05:07;;;;;;;5.50;2.60;;;16.40;99.90;;;;;;5094792;28;20226;-81
2022/07/30 06:07:33;;;;;;;5.60;2.70;;;16.40;99.90;;;;;;5094610;28;20196;-81
2022/07/30 06:10:00;;;;;;;3.03;2.50;;;16.50;99.90;;;;;;5095134;28;20176;-81
2022/07/30 06:12:27;;;;;;;2.50;2.20;;;16.70;99.90;;;;;;5095150;28;20188;-82
2022/07/30 06:14:53;;;;;;;3.23;2.67;;;16.70;99.90;;;;;;5094665;28;20642;-81
2022/07/30 06:17:19;;;;;;;2.50;2.30;;;16.80;99.90;;;;;;5094933;28;20214;-81
2022/07/30 06:19:45;;;;;;;4.17;2.43;;;16.90;99.90;;;;;;5096066;28;20229;-81
2022/07/30 06:22:11;;;;;;;2.60;2.40;;;;;;;;;;5095580;28;20212;-81
2022/07/30 06:24:36;;;;;;;3.63;2.57;;;17.20;99.90;;;;;;5096244;28;20184;-81
2022/07/30 06:27:02;;;;;;;2.50;2.30;;;17.20;99.90;;;;;;5094545;28;20201;-82
2022/07/30 06:29:28;;;;;;;4.43;2.40;;;17.30;99.90;;;;;;5095952;28;20252;-81
2022/07/30 06:31:54;;;;;;;2.97;2.67;;;17.40;99.90;;;;;;5095831;28;20173;-81
2022/07/30 06:34:20;;;;;;;4.00;2.50;;;17.40;99.90;;;;;;5094925;28;20257;-81
2022/07/30 06:36:46;;;;;;;4.50;2.80;;;17.50;99.90;;;;;;5094501;28;20209;-81
2022/07/30 06:39:11;;;;;;;3.07;2.50;;;17.60;99.90;;;;;;5094553;28;20202;-81
2022/07/30 06:41:37;;;;;;;3.33;2.47;;;17.60;99.90;;;;;;5098420;28;20277;-81
2022/07/30 06:44:03;;;;;;;6.43;2.90;;;17.70;99.90;;;;;;5102500;28;20637;-81
2022/07/30 06:46:29;;;;;;;3.40;2.80;;;17.70;99.90;;;;;;5098596;28;20386;-81
2022/07/30 06:48:55;;;;;;;2.90;2.60;;;17.70;99.90;;;;;;5098743;28;20172;-81
2022/07/30 06:51:20;;;;;;;2.70;2.40;;;17.70;99.90;;;;;;5099276;28;20210;-81
2022/07/30 06:53:47;;;;;;;4.87;3.00;;;17.80;99.90;;;;;;5101227;28;20184;-80
2022/07/30 06:56:13;;;;;;;3.77;3.20;;;17.80;99.90;;;;;;5102840;28;20196;-81
2022/07/30 06:58:39;;;;;;;4.90;3.60;;;17.80;99.90;;;;;;5100401;28;20255;-82
2022/07/30 07:01:05;;;;;;;4.93;3.90;;;17.80;99.90;;;;;;5099821;28;20222;-82
2022/07/30 07:03:30;;;;;;;7.00;4.50;;;17.80;99.90;;;;;;5098509;28;20207;-81
2022/07/30 07:05:56;;;;;;;5.93;4.10;;;17.80;99.90;;;;;;5099477;28;20730;-82
2022/07/30 07:08:22;;;;;;;5.97;4.53;;;17.80;99.90;;;;;;5099664;28;20255;-81
2022/07/30 07:10:48;;;;;;;6.87;4.53;;;17.80;99.90;;;;;;5100075;28;20530;-81
2022/07/30 07:13:14;;;;;;;13.53;5.77;;;17.90;99.90;;;;;;5099847;28;20172;-82
2022/07/30 07:15:40;;;;;;;7.37;5.00;;;18.00;99.90;;;;;;5098444;28;20200;-81
2022/07/30 07:18:06;;;;;;;5.87;5.27;;;18.00;99.90;;;;;;5097309;28;20230;-81
2022/07/30 07:20:33;;;;;;;7.97;5.20;;;18.10;99.90;;;;;;5098140;28;20176;-82
2022/07/30 07:22:59;;;;;;;5.47;4.97;;;18.20;99.90;;;;;;5097983;28;20693;-82
2022/07/30 07:25:25;;;;;;;10.13;5.37;;;18.40;99.90;;;;;;5098961;28;20192;-82
2022/07/30 07:27:52;;;;;;;8.03;6.20;;;18.40;99.90;;;;;;5098910;28;20179;-82
2022/07/30 07:30:17;;;;;;;8.40;6.50;;;18.40;99.90;;;;;;5098671;28;20283;-82
2022/07/30 07:32:43;;;;;;;5.87;5.03;;;18.40;99.90;;;;;;5098149;28;20594;-80
2022/07/30 07:35:09;;;;;;;7.03;5.90;;;18.50;99.90;;;;;;5098037;28;20187;-81
2022/07/30 07:37:34;;;;;;;7.77;5.87;;;18.60;99.90;;;;;;5101526;28;20551;-81
2022/07/30 07:40:00;;;;;;;7.87;6.63;;;18.60;99.90;;;;;;5099596;28;20193;-81
2022/07/30 07:42:26;;;;;;;7.27;6.07;;;18.80;99.90;;;;;;5099665;28;20234;-81
2022/07/30 07:44:52;;;;;;;7.43;6.27;;;;;;;;;;5098271;28;20223;-81
2022/07/30 07:47:18;;;;;;;6.17;5.53;;;18.90;99.90;;;;;;5099346;28;20207;-81
2022/07/30 07:49:43;;;;;;;8.00;6.17;;;19.00;99.90;;;;;;5099125;28;20176;-82
2022/07/30 07:52:09;;;;;;;7.77;5.43;;;19.00;99.90;;;;;;5098648;28;20188;-81
2022/07/30 07:54:35;;;;;;;8.50;5.87;;;19.30;99.90;;;;;;5099084;28;20173;-81
2022/07/30 07:57:02;;;;;;;9.67;5.47;;;19.40;99.90;;;;;;5097658;28;20200;-80
2022/07/30 07:59:27;;;;;;;5.43;4.53;;;19.40;99.90;;;;;;5098600;28;20528;-81
2022/07/30 08:01:53;;;;;;;5.93;4.77;;;19.50;99.90;;;;;;5099240;28;20205;-81
2022/07/30 08:04:19;;;;;;;5.93;4.40;;;19.60;99.90;;;;;;5099555;28;20177;-81
2022/07/30 08:06:44;;;;;;;5.33;4.83;;;19.80;99.90;;;;;;5097629;28;20205;-81
2022/07/30 08:09:10;;;;;;;6.37;4.50;;;19.80;99.90;;;;;;5099032;28;20175;-81
2022/07/30 08:11:36;;;;;;;6.67;4.60;;;19.90;99.90;;;;;;5099663;28;20528;-81
2022/07/30 08:14:02;;;;;;;4.97;4.37;;;19.50;99.90;;;;;;5097677;28;20189;-81
2022/07/30 08:16:27;;;;;;;8.87;4.57;;;19.50;99.90;;;;;;5097811;28;20259;-81
2022/07/30 08:18:53;;;;;;;5.47;4.07;;;19.50;99.90;;;;;;5098385;28;20194;-81
2022/07/30 08:21:19;;;;;;;3.97;3.43;;;19.60;99.90;;;;;;5103145;28;20698;-81
2022/07/30 08:23:45;;;;;;;6.13;3.50;;;19.70;99.90;;;;;;5098713;28;20226;-81
2022/07/30 08:26:10;;;;;;;3.90;3.50;;;19.90;99.90;;;;;;5099064;28;20254;-81
2022/07/30 08:28:36;;;;;;;8.73;3.60;;;19.90;99.90;;;;;;5098780;28;20252;-81
2022/07/30 08:31:02;;;;;;;3.83;3.50;;;20.00;99.90;;;;;;5104327;28;20659;-81
2022/07/30 08:33:28;;;;;;;3.70;3.37;;;20.00;99.90;;;;;;5101034;28;20189;-81
2022/07/30 08:35:53;;;;;;;4.07;3.20;;;20.10;99.90;;;;;;5098322;28;20601;-81
2022/07/30 08:38:19;;;;;;;5.20;2.80;;;20.30;99.90;;;;;;5097982;28;20193;-81
2022/07/30 08:40:45;;;;;;;8.10;3.53;;;20.40;99.90;;;;;;5097920;28;20166;-81
2022/07/30 08:43:11;;;;;;;4.07;2.80;;;20.50;99.90;;;;;;5098696;28;20658;-81
2022/07/30 08:45:37;;;;;;;3.63;3.10;;;20.60;99.90;;;;;;5097173;28;20245;-81
2022/07/30 08:48:07;;;;;;;5.40;3.10;;;20.70;99.90;;;;;;5098078;28;20181;-81
2022/07/30 08:50:33;;;;;;;6.03;3.33;;;20.80;99.90;;;;;;5098574;28;20203;-82
2022/07/30 08:53:01;;;;;;;5.73;3.30;;;20.90;99.90;;;;;;5098056;28;20172;-82
2022/07/30 08:55:27;;;;;;;5.43;2.97;;;21.40;99.90;;;;;;5098533;28;20630;-81
2022/07/30 08:57:53;;;;;;;3.70;2.93;;;21.40;99.90;;;;;;5098162;28;20177;-81
2022/07/30 09:00:20;;;;;;;5.70;2.97;;;21.60;99.90;;;;;;5099143;28;20176;-79
2022/07/30 09:02:46;;;;;;;3.80;3.13;;;21.70;99.90;;;;;;5100454;28;20230;-80
2022/07/30 09:05:12;;;;;;;3.10;2.77;;;21.80;99.90;;;;;;5102095;28;20244;-79
2022/07/30 09:07:39;;;;;;;5.60;3.13;;;21.90;99.90;;;;;;5101284;28;20533;-78
2022/07/30 09:10:07;;;;;;;3.00;2.70;;;21.90;99.90;;;;;;5101486;28;20203;-78
2022/07/30 09:12:40;;;;;;;3.10;2.73;;;21.80;99.90;;;;;;5101732;28;20706;-78
2022/07/30 09:15:09;;;;;;;2.97;2.40;;;21.80;99.90;;;;;;5103120;28;20436;-78
2022/07/30 09:17:59;;;;;;;4.27;2.80;;;22.00;99.90;;;;;;5102535;28;20216;-78
2022/07/30 09:20:43;;;;;;;4.33;2.20;;;22.10;99.90;;;;;;5101446;28;20176;-79
2022/07/30 09:23:08;;;;;;;2.70;2.20;;;21.80;99.90;;;;;;5102443;28;20187;-79
2022/07/30 09:25:43;;;;;;;2.40;2.20;;;21.90;99.90;;;;;;5102216;28;20165;-79
2022/07/30 09:28:10;;;;;;;3.87;2.43;;;21.90;99.90;;;;;;5100723;28;20529;-79
2022/07/30 09:30:46;;;;;;;4.23;2.40;;;22.20;99.90;;;;;;5102528;28;20172;-79
2022/07/30 09:33:12;;;;;;;3.07;2.43;;;22.50;99.90;;;;;;5101309;28;20229;-79
2022/07/30 09:35:39;;;;;;;3.43;2.30;;;22.60;99.90;;;;;;5099269;28;20192;-79
2022/07/30 09:38:05;;;;;;;2.40;2.13;;;22.50;99.90;;;;;;5099351;28;20258;-79
2022/07/30 09:40:32;;;;;;;2.47;2.13;;;22.80;99.90;;;;;;5101708;28;20169;-79
2022/07/30 09:43:03;;;;;;;5.03;2.40;;;22.90;99.90;;;;;;5100898;28;20230;-79
2022/07/30 09:45:29;;;;;;;2.90;2.60;;;23.00;99.90;;;;;;5102083;28;20172;-79
2022/07/30 09:47:55;;;;;;;2.33;2.00;;;23.20;99.90;;;;;;5100825;28;20244;-79
2022/07/30 09:50:23;;;;;;;3.00;2.20;;;23.00;99.90;;;;;;5101981;28;20255;-79
2022/07/30 09:52:49;;;;;;;2.97;1.93;;;23.20;99.90;;;;;;5101716;28;20172;-79
2022/07/30 09:55:31;;;;;;;3.20;2.30;;;23.30;99.90;;;;;;5105453;28;20586;-79
2022/07/30 09:58:00;;;;;;;2.43;2.23;;;23.40;99.90;;;;;;5102619;28;20555;-79
2022/07/30 10:00:28;;;;;;;3.10;2.10;;;23.60;99.90;;;;;;5103270;28;20177;-79
2022/07/30 10:02:54;;;;;;;3.17;2.07;;;23.90;99.90;;;;;;5102821;28;20226;-79
2022/07/30 10:05:20;;;;;;;2.40;2.13;;;23.60;99.90;;;;;;5099781;28;20176;-79
2022/07/30 10:07:49;;;;;;;2.37;2.17;;;23.70;99.90;;;;;;5100644;28;20162;-79
2022/07/30 10:10:16;;;;;;;3.47;1.90;;;24.00;99.90;;;;;;5100539;28;20209;-78
2022/07/30 10:12:44;;;;;;;3.13;1.93;;;24.20;99.90;;;;;;5101736;28;20253;-79
2022/07/30 10:15:10;;;;;;;2.07;1.80;;;24.20;99.90;;;;;;5101250;28;20176;-80
2022/07/30 10:17:37;;;;;;;3.50;1.80;;;23.80;99.90;;;;;;5099267;28;20203;-79
2022/07/30 10:20:07;;;;;;;1.93;1.70;;;23.30;99.90;;;;;;5100738;28;20246;-79
2022/07/30 10:22:33;;;;;;;3.30;1.97;;;23.70;99.90;;;;;;5101168;28;20196;-79
2022/07/30 10:24:59;;;;;;;2.60;2.00;;;24.30;99.90;;;;;;5101465;28;20177;-79
2022/07/30 10:27:26;;;;;;;2.10;1.60;;;24.90;99.90;;;;;;5101360;28;20197;-79
2022/07/30 10:29:53;;;;;;;4.47;2.23;;;25.20;99.90;;;;;;5100884;28;20175;-79
2022/07/30 10:32:19;;;;;;;1.77;1.67;;;24.90;99.90;;;;;;5094934;28;20643;-76
2022/07/30 10:34:46;;;;;;;2.63;1.80;;;24.90;99.90;;;;;;5092195;28;20631;-77
2022/07/30 10:37:15;;;;;;;2.87;1.60;;;25.10;99.90;;;;;;5099599;28;20339;-78
2022/07/30 10:40:09;;;;;;;4.73;1.70;;;25.40;99.90;;;;;;5097545;28;20201;-79
2022/07/30 10:43:06;;;;;;;2.70;1.63;;;25.20;99.90;;;;;;5097965;28;20584;-80
2022/07/30 10:45:51;;;;;;;1.83;1.50;;;24.40;99.90;;;;;;5096075;28;20248;-79
2022/07/30 10:48:18;;;;;;;3.07;1.70;;;23.50;99.90;;;;;;5095275;28;20196;-82
2022/07/30 10:50:53;;;;;;;1.97;1.50;;;23.50;99.90;;;;;;5095041;28;20173;-81
2022/07/30 10:53:36;;;;;;;2.73;1.97;;;22.80;99.90;;;;;;5093665;28;20171;-81
2022/07/30 10:56:23;;;;;;;3.63;2.10;;;22.30;99.90;;;;;;5093958;28;20256;-81
2022/07/30 10:59:09;;;;;;;2.20;1.80;;;21.90;99.90;;;;;;5093745;28;20255;-82
2022/07/30 11:01:47;;;;;;;1.80;1.70;;;21.60;99.90;;;;;;5094992;28;20204;-81
2022/07/30 11:04:24;;;;;;;6.23;2.00;;;21.50;99.90;;;;;;5096196;28;20172;-81
2022/07/30 11:06:51;;;;;;;1.80;1.70;;;21.50;99.90;;;;;;5094831;28;20203;-82
2022/07/30 11:09:34;;;;;;;3.23;2.10;;;22.00;99.90;;;;;;5094410;28;20176;-81
2022/07/30 11:11:59;;;;;;;4.47;2.03;;;23.20;99.90;;;;;;5096422;28;20161;-82
2022/07/30 11:14:44;;;;;;;4.30;2.10;;;24.10;99.90;;;;;;5094322;28;20184;-82
2022/07/30 11:17:10;;;;;;;3.93;2.30;;;24.50;99.90;;;;;;5094431;28;20200;-82
2022/07/30 11:20:01;;;;;;;2.43;1.70;;;24.50;99.90;;;;;;5094822;28;20176;-81
2022/07/30 11:22:30;;;;;;;3.50;1.70;;;25.00;99.90;;;;;;5096931;28;20205;-80
2022/07/30 11:24:56;;;;;;;2.90;1.93;;;25.70;99.90;;;;;;5094989;28;20185;-82
2022/07/30 11:27:37;;;;;;;3.00;1.90;;;25.40;99.90;;;;;;5098048;28;20190;-81
2022/07/30 11:30:28;;;;;;;3.50;2.30;;;24.70;99.90;;;;;;5100211;28;20176;-82
2022/07/30 11:33:15;;;;;;;2.93;1.90;;;23.90;99.90;;;;;;5091458;28;20191;-81
2022/07/30 11:35:42;;;;;;;4.10;1.80;;;24.10;99.90;;;;;;5099371;28;20683;-81
2022/07/30 11:38:14;;;;;;;2.30;1.77;;;24.00;99.90;;;;;;5099743;28;20713;-82
2022/07/30 11:40:46;;;;;;;2.57;1.50;;;23.60;99.90;;;;;;5098847;28;20200;-81
2022/07/30 11:43:35;;;;;;;2.20;1.80;;;23.10;99.90;;;;;;5099162;28;20202;-79
2022/07/30 11:46:09;;;;;;;5.00;2.03;;;23.30;99.90;;;;;;5097962;28;20237;-80
2022/07/30 11:48:40;;;;;;;4.47;2.30;;;24.40;99.90;;;;;;5097243;28;20168;-79
2022/07/30 11:51:07;;;;;;;3.20;1.90;;;25.20;99.90;;;;;;5098023;28;20161;-79
2022/07/30 11:53:34;;;;;;;4.20;1.70;;;26.00;99.90;;;;;;5096843;28;20173;-80
2022/07/30 11:56:00;;;;;;;2.20;1.70;;;26.50;99.90;;;;;;5096614;28;20265;-79
2022/07/30 11:58:39;;;;;;;4.40;2.27;;;26.70;99.90;;;;;;5096723;28;20173;-80
2022/07/30 12:01:10;;;;;;;2.77;1.90;;;27.00;99.90;;;;;;5096772;28;20618;-80
2022/07/30 12:03:39;;;;;;;4.60;1.70;;;27.00;99.80;;;;;;5098452;28;20163;-80
2022/07/30 12:06:08;;;;;;;2.83;1.93;;;27.10;99.90;;;;;;5096881;28;20198;-80
2022/07/30 12:08:41;;;;;;;3.30;1.90;;;27.00;99.90;;;;;;5098213;28;20174;-80
2022/07/30 12:11:06;;;;;;;3.27;2.00;;;26.80;99.90;;;;;;5097196;28;20263;-80
2022/07/30 12:13:32;;;;;;;2.03;1.83;;;27.10;99.90;;;;;;5098389;28;20190;-80
2022/07/30 12:15:58;;;;;;;3.80;2.20;;;27.40;99.90;;;;;;5097037;28;20200;-80
2022/07/30 12:18:26;;;;;;;2.93;2.10;;;27.60;99.90;;;;;;5097153;28;20290;-80
2022/07/30 12:21:03;;;;;;;4.40;2.10;;;27.50;99.90;;;;;;5096776;28;20172;-80
2022/07/30 12:23:30;;;;;;;3.00;2.10;;;27.50;99.60;;;;;;5098415;28;20199;-80
2022/07/30 12:25:56;;;;;;;5.73;2.10;;;27.20;99.90;;;;;;5097132;28;20288;-80
2022/07/30 12:28:27;;;;;;;5.43;2.07;;;27.30;99.10;;;;;;5097995;28;20192;-80
2022/07/30 12:30:54;;;;;;;1.67;1.57;;;27.30;98.50;;;;;;5096822;28;20164;-80
2022/07/30 12:33:21;;;;;;;4.07;1.80;;;26.70;99.90;;;;;;5096911;28;20173;-80
2022/07/30 12:35:53;;;;;;;3.47;1.53;;;26.00;99.90;;;;;;5097039;28;20656;-80
2022/07/30 12:38:20;;;;;;;4.47;1.53;;;25.10;99.80;;;;;;5096926;28;20204;-80
2022/07/30 12:41:02;;;;;;;5.13;1.80;;;24.50;99.90;;;;;;5097030;28;20175;-80
2022/07/30 12:43:54;;;;;;;3.17;1.80;;;24.30;99.90;;;;;;5098066;28;20190;-80
2022/07/30 12:46:26;;;;;;;4.30;1.90;;;25.00;99.90;;;;;;5098342;28;20229;-80
2022/07/30 12:49:01;;;;;;;2.03;1.37;;;26.00;99.60;;;;;;5097030;28;20290;-80
2022/07/30 12:51:36;;;;;;;3.50;2.20;;;26.40;99.90;;;;;;5096526;28;20195;-80
2022/07/30 12:54:15;;;;;;;4.07;1.73;;;26.90;98.10;;;;;;5096590;28;20171;-80
2022/07/30 12:56:58;;;;;;;2.70;1.80;;;26.80;98.00;;;;;;5096209;28;20208;-81
2022/07/30 12:59:24;;;;;;;3.23;1.60;;;26.50;99.90;;;;;;5096769;28;20160;-80
2022/07/30 13:01:52;;;;;;;3.73;1.77;;;26.40;99.80;;;;;;5096465;28;20235;-80